Time;durP1;ratioP1;P1;durP2;ratioP2;P2;SDS_P1;SDS_P2;PMS_P1;PMS_P2;Temp;Humidity;BMP_temperature;BMP_pressure;BME280_temperature;BME280_humidity;BME280_pressure;Samples;Min_cycle;Max_cycle;Signal;HPM_P1;HPM_P2
2021/08/25 00:00:20;;;;;;;9.88;6.95;;;15.70;99.90;;;;;;5074236;28;20228;-72
2021/08/25 00:02:48;;;;;;;8.13;6.82;;;15.70;99.90;;;;;;5074155;28;20656;-71
2021/08/25 00:05:15;;;;;;;9.52;7.50;;;15.60;99.90;;;;;;5073727;28;20225;-73
2021/08/25 00:07:42;;;;;;;9.68;7.40;;;15.60;99.90;;;;;;5073784;28;20215;-71
2021/08/25 00:10:10;;;;;;;9.38;6.95;;;15.60;99.90;;;;;;5073988;28;20291;-71
2021/08/25 00:12:37;;;;;;;11.65;8.18;;;15.60;99.90;;;;;;5073750;28;20231;-72
2021/08/25 00:15:05;;;;;;;10.68;7.93;;;15.50;99.90;;;;;;5073768;28;20202;-72
2021/08/25 00:17:32;;;;;;;11.75;8.35;;;15.40;99.90;;;;;;5073680;28;20209;-72
2021/08/25 00:20:01;;;;;;;9.95;7.40;;;15.40;99.90;;;;;;5073584;28;20299;-72
2021/08/25 00:22:27;;;;;;;8.68;6.95;;;15.40;99.90;;;;;;5073185;28;20703;-71
2021/08/25 00:24:54;;;;;;;9.75;7.70;;;15.50;99.90;;;;;;5073175;28;20704;-71
2021/08/25 00:27:21;;;;;;;9.90;7.50;;;15.40;99.90;;;;;;5073192;28;20291;-70
2021/08/25 00:29:48;;;;;;;10.80;7.32;;;15.50;99.90;;;;;;5073477;28;20208;-71
2021/08/25 00:32:15;;;;;;;8.73;7.40;;;15.50;99.90;;;;;;5073209;28;20225;-71
2021/08/25 00:34:42;;;;;;;9.25;7.55;;;15.50;99.90;;;;;;5073254;28;20231;-70
2021/08/25 00:37:10;;;;;;;9.55;6.60;;;15.40;99.90;;;;;;5073414;28;20210;-71
2021/08/25 00:39:37;;;;;;;9.93;7.50;;;15.30;99.90;;;;;;5073602;28;20208;-70
2021/08/25 00:42:04;;;;;;;14.63;8.82;;;15.30;99.90;;;;;;5073072;28;20319;-72
2021/08/25 00:44:31;;;;;;;11.20;8.10;;;15.10;99.90;;;;;;5073258;28;20318;-71
2021/08/25 00:46:58;;;;;;;10.50;7.63;;;15.10;99.90;;;;;;5072979;28;20224;-71
2021/08/25 00:49:24;;;;;;;10.45;7.97;;;15.10;99.90;;;;;;5072997;28;20202;-71
2021/08/25 00:51:52;;;;;;;10.35;7.40;;;15.10;99.90;;;;;;5072827;28;20654;-71
2021/08/25 00:54:20;;;;;;;10.63;7.95;;;15.10;99.90;;;;;;5073235;28;20209;-72
2021/08/25 00:56:48;;;;;;;9.68;7.35;;;15.10;99.90;;;;;;5072733;28;20621;-71
2021/08/25 00:59:17;;;;;;;10.73;7.15;;;15.10;99.90;;;;;;5072896;28;20296;-71
2021/08/25 01:01:53;;;;;;;9.93;8.35;;;15.10;99.90;;;;;;5072563;28;20228;-71
2021/08/25 01:04:25;;;;;;;10.68;7.50;;;15.00;99.90;;;;;;5073049;28;20208;-70
2021/08/25 01:06:52;;;;;;;11.35;7.53;;;14.80;99.90;;;;;;5072908;28;20207;-69
2021/08/25 01:09:21;;;;;;;9.25;7.63;;;14.80;99.90;;;;;;5073084;28;20684;-70
2021/08/25 01:11:48;;;;;;;9.50;8.05;;;14.70;99.90;;;;;;5072332;28;20311;-70
2021/08/25 01:14:16;;;;;;;9.70;7.43;;;14.70;99.90;;;;;;5073099;28;20220;-74
2021/08/25 01:16:43;;;;;;;15.07;8.88;;;14.70;99.90;;;;;;5072686;28;20294;-75
2021/08/25 01:19:14;;;;;;;11.57;8.15;;;14.80;99.90;;;;;;5073370;28;20662;-71
2021/08/25 01:21:42;;;;;;;10.90;8.13;;;14.80;99.90;;;;;;5074354;28;20758;-70
2021/08/25 01:24:12;;;;;;;8.65;7.25;;;14.80;99.90;;;;;;5074072;28;20301;-70
2021/08/25 01:26:41;;;;;;;12.35;8.02;;;14.80;99.90;;;;;;5073316;28;20236;-70
2021/08/25 01:29:22;;;;;;;11.43;7.60;;;14.80;99.90;;;;;;5073470;28;20214;-70
2021/08/25 01:31:50;;;;;;;9.32;7.78;;;14.80;99.90;;;;;;5073768;28;20224;-70
2021/08/25 01:34:17;;;;;;;9.20;7.68;;;14.70;99.90;;;;;;5073750;28;20204;-70
2021/08/25 01:36:44;;;;;;;11.50;7.70;;;14.70;99.90;;;;;;5073362;28;20223;-70
2021/08/25 01:39:11;;;;;;;10.80;7.50;;;14.70;99.90;;;;;;5074064;28;20199;-70
2021/08/25 01:41:38;;;;;;;10.45;7.75;;;14.70;99.90;;;;;;5073475;28;20319;-70
2021/08/25 01:44:05;;;;;;;11.57;7.88;;;14.60;99.90;;;;;;5073774;28;20295;-70
2021/08/25 01:46:35;;;;;;;10.02;7.18;;;14.60;99.90;;;;;;5073548;28;20692;-70
2021/08/25 01:49:05;;;;;;;9.45;7.60;;;14.60;99.90;;;;;;5074156;28;20651;-70
2021/08/25 01:51:33;;;;;;;11.52;7.80;;;14.70;99.90;;;;;;5073918;28;20220;-70
2021/08/25 01:54:01;;;;;;;10.10;7.82;;;14.70;99.90;;;;;;5073605;28;20204;-70
2021/08/25 01:56:28;;;;;;;11.80;8.60;;;14.60;99.90;;;;;;5073544;28;20203;-70
2021/08/25 01:58:56;;;;;;;8.88;7.57;;;14.50;99.90;;;;;;5073613;28;20648;-70
2021/08/25 02:01:23;;;;;;;11.05;7.45;;;14.40;99.90;;;;;;5073665;28;20227;-71
2021/08/25 02:03:51;;;;;;;10.32;8.07;;;14.30;99.90;;;;;;5074072;28;20217;-70
2021/08/25 02:06:18;;;;;;;10.70;7.75;;;14.30;99.90;;;;;;5073117;28;20313;-71
2021/08/25 02:08:45;;;;;;;10.30;7.93;;;14.30;99.90;;;;;;5073406;28;20204;-70
2021/08/25 02:11:12;;;;;;;11.27;7.13;;;14.30;99.90;;;;;;5073493;28;20204;-70
2021/08/25 02:13:39;;;;;;;12.52;8.32;;;14.40;99.90;;;;;;5073761;28;20199;-70
2021/08/25 02:16:05;;;;;;;19.33;8.52;;;14.40;99.90;;;;;;5073048;28;20287;-70
2021/08/25 02:18:32;;;;;;;10.85;8.68;;;14.50;99.90;;;;;;5073641;28;20199;-70
2021/08/25 02:21:01;;;;;;;11.80;8.15;;;14.50;99.90;;;;;;5073286;28;20213;-70
2021/08/25 02:23:28;;;;;;;9.40;7.05;;;14.40;99.90;;;;;;5073553;28;20322;-70
2021/08/25 02:25:54;;;;;;;11.43;8.02;;;14.50;99.90;;;;;;5073259;28;20406;-70
2021/08/25 02:28:21;;;;;;;12.35;8.25;;;14.50;99.90;;;;;;5073395;28;20206;-70
2021/08/25 02:30:48;;;;;;;10.40;7.47;;;14.50;99.90;;;;;;5073508;28;20241;-70
2021/08/25 02:33:15;;;;;;;8.90;6.97;;;14.50;99.90;;;;;;5072985;28;20588;-70
2021/08/25 02:35:42;;;;;;;11.70;7.93;;;14.50;99.90;;;;;;5073297;28;20207;-70
2021/08/25 02:38:10;;;;;;;10.35;8.07;;;14.50;99.90;;;;;;5073422;28;20207;-70
2021/08/25 02:40:38;;;;;;;11.55;8.15;;;14.50;99.90;;;;;;5073436;28;20208;-70
2021/08/25 02:43:05;;;;;;;10.65;7.75;;;14.50;99.90;;;;;;5073133;28;20650;-70
2021/08/25 02:45:32;;;;;;;10.90;7.63;;;14.50;99.90;;;;;;5073029;28;20224;-70
2021/08/25 02:47:59;;;;;;;10.18;8.38;;;14.40;99.90;;;;;;5073465;28;20202;-70
2021/08/25 02:50:26;;;;;;;10.15;7.65;;;14.50;99.90;;;;;;5076134;28;20211;-70
2021/08/25 02:52:53;;;;;;;9.23;7.57;;;14.40;99.90;;;;;;5076733;28;20231;-70
2021/08/25 02:55:21;;;;;;;9.70;7.88;;;14.30;99.90;;;;;;5076476;28;20204;-70
2021/08/25 02:57:48;;;;;;;10.20;7.82;;;14.30;99.90;;;;;;5076913;28;20624;-70
2021/08/25 03:00:15;;;;;;;10.02;8.07;;;14.30;99.90;;;;;;5077317;28;20203;-70
2021/08/25 03:02:42;;;;;;;10.88;7.90;;;14.20;99.90;;;;;;5076689;28;20573;-70
2021/08/25 03:05:09;;;;;;;10.68;8.32;;;14.20;99.90;;;;;;5076409;28;20209;-70
2021/08/25 03:07:36;;;;;;;9.55;6.97;;;14.20;99.90;;;;;;5076754;28;20203;-70
2021/08/25 03:10:03;;;;;;;12.15;8.10;;;14.10;99.90;;;;;;5076778;28;20645;-70
2021/08/25 03:12:32;;;;;;;13.07;9.45;;;14.10;99.90;;;;;;5076112;28;20223;-70
2021/08/25 03:14:58;;;;;;;10.15;7.50;;;14.10;99.90;;;;;;5076749;28;20290;-70
2021/08/25 03:17:25;;;;;;;11.13;8.20;;;14.10;99.90;;;;;;5076218;28;20297;-70
2021/08/25 03:19:52;;;;;;;9.20;7.35;;;14.20;99.90;;;;;;5076212;28;20207;-70
2021/08/25 03:22:19;;;;;;;9.45;7.30;;;14.10;99.90;;;;;;5076386;28;20230;-70
2021/08/25 03:24:46;;;;;;;12.07;8.30;;;14.10;99.90;;;;;;5075632;28;20203;-70
2021/08/25 03:27:12;;;;;;;9.77;8.10;;;14.10;99.90;;;;;;5076191;28;20315;-70
2021/08/25 03:29:40;;;;;;;9.50;7.25;;;14.10;99.90;;;;;;5076822;28;20299;-70
2021/08/25 03:32:08;;;;;;;12.30;8.68;;;14.10;99.90;;;;;;5076516;28;20230;-70
2021/08/25 03:34:35;;;;;;;9.70;7.15;;;14.00;99.90;;;;;;5076395;28;20203;-70
2021/08/25 03:37:03;;;;;;;10.68;8.15;;;14.00;99.90;;;;;;5076335;28;20207;-70
2021/08/25 03:39:29;;;;;;;12.00;8.65;;;14.00;99.90;;;;;;5076496;28;20298;-70
2021/08/25 03:41:56;;;;;;;9.60;6.88;;;14.00;99.90;;;;;;5075837;28;20227;-70
2021/08/25 03:44:24;;;;;;;9.73;8.00;;;13.90;99.90;;;;;;5076320;28;20207;-70
2021/08/25 03:46:52;;;;;;;9.20;7.10;;;13.90;99.90;;;;;;5075738;28;20229;-70
2021/08/25 03:49:19;;;;;;;9.95;7.30;;;13.90;99.90;;;;;;5075592;28;20209;-70
2021/08/25 03:51:46;;;;;;;11.00;8.35;;;13.90;99.90;;;;;;5075875;28;20219;-70
2021/08/25 03:54:12;;;;;;;13.10;9.10;;;13.80;99.90;;;;;;5075918;28;20209;-70
2021/08/25 03:56:40;;;;;;;12.88;9.05;;;13.80;99.90;;;;;;5075215;28;20201;-70
2021/08/25 03:59:08;;;;;;;11.27;7.85;;;13.90;99.90;;;;;;5075231;28;20202;-70
2021/08/25 04:01:35;;;;;;;14.15;8.60;;;13.90;99.90;;;;;;5075540;28;20229;-70
2021/08/25 04:04:06;;;;;;;11.77;8.73;;;13.70;99.90;;;;;;5075997;28;20241;-70
2021/08/25 04:06:33;;;;;;;11.85;8.80;;;13.80;99.90;;;;;;5075623;28;20214;-70
2021/08/25 04:09:00;;;;;;;10.80;7.13;;;13.70;99.90;;;;;;5075770;28;20209;-70
2021/08/25 04:11:27;;;;;;;9.60;8.48;;;13.70;99.90;;;;;;5074978;28;20708;-70
2021/08/25 04:13:53;;;;;;;10.80;8.05;;;13.80;99.90;;;;;;5075210;28;20642;-70
2021/08/25 04:16:20;;;;;;;11.32;8.00;;;13.70;99.90;;;;;;5075349;28;20203;-70
2021/08/25 04:18:47;;;;;;;9.65;7.72;;;13.80;99.90;;;;;;5075070;28;20624;-70
2021/08/25 04:21:15;;;;;;;12.68;8.65;;;13.80;99.90;;;;;;5075503;28;20202;-70
2021/08/25 04:23:42;;;;;;;12.45;9.50;;;13.80;99.90;;;;;;5075410;28;20239;-70
2021/08/25 04:26:09;;;;;;;12.27;8.77;;;13.80;99.90;;;;;;5074686;28;20226;-70
2021/08/25 04:28:36;;;;;;;10.63;7.32;;;13.90;99.90;;;;;;5075173;28;20207;-70
2021/08/25 04:31:03;;;;;;;13.38;8.68;;;13.90;99.90;;;;;;5075126;28;20303;-70
2021/08/25 04:33:30;;;;;;;9.45;8.50;;;13.80;99.90;;;;;;5075133;28;20294;-70
2021/08/25 04:35:58;;;;;;;11.23;7.93;;;13.80;99.90;;;;;;5074624;28;20199;-70
2021/08/25 04:38:26;;;;;;;12.65;8.77;;;13.80;99.90;;;;;;5075093;28;20664;-70
2021/08/25 04:40:53;;;;;;;13.50;8.20;;;13.80;99.90;;;;;;5074351;28;20210;-70
2021/08/25 04:43:20;;;;;;;10.75;7.65;;;13.80;99.90;;;;;;5074900;28;20311;-70
2021/08/25 04:45:47;;;;;;;12.45;7.95;;;13.80;99.90;;;;;;5074391;28;20341;-70
2021/08/25 04:48:14;;;;;;;11.48;8.20;;;13.90;99.90;;;;;;5074977;28;20214;-70
2021/08/25 04:50:41;;;;;;;12.63;9.18;;;13.90;99.90;;;;;;5074891;28;20213;-70
2021/08/25 04:53:08;;;;;;;12.23;8.60;;;13.90;99.90;;;;;;5074053;28;20223;-70
2021/08/25 04:55:37;;;;;;;11.90;8.32;;;13.90;99.90;;;;;;5074495;28;20214;-70
2021/08/25 04:58:04;;;;;;;13.25;9.25;;;13.90;99.90;;;;;;5073961;28;20213;-70
2021/08/25 05:00:31;;;;;;;12.82;8.43;;;13.90;99.90;;;;;;5074862;28;20206;-70
2021/08/25 05:02:57;;;;;;;13.88;9.35;;;13.90;99.90;;;;;;5074611;28;20223;-70
2021/08/25 05:05:25;;;;;;;12.10;8.68;;;14.00;99.90;;;;;;5074247;28;20295;-70
2021/08/25 05:07:51;;;;;;;10.93;8.75;;;14.00;99.90;;;;;;5073818;28;20219;-70
2021/08/25 05:10:18;;;;;;;13.30;9.20;;;14.10;99.90;;;;;;5074220;28;20210;-70
2021/08/25 05:12:46;;;;;;;11.45;9.00;;;14.10;99.90;;;;;;5073942;28;20235;-70
2021/08/25 05:15:14;;;;;;;13.13;8.88;;;14.00;99.90;;;;;;5074176;28;20238;-70
2021/08/25 05:17:41;;;;;;;12.73;8.20;;;14.00;99.90;;;;;;5074333;28;20205;-70
2021/08/25 05:20:09;;;;;;;11.38;8.57;;;14.00;99.90;;;;;;5073889;28;20297;-70
2021/08/25 05:22:36;;;;;;;13.80;9.43;;;14.10;99.90;;;;;;5074001;28;20311;-70
2021/08/25 05:25:04;;;;;;;12.73;9.57;;;14.10;99.90;;;;;;5073602;28;20665;-70
2021/08/25 05:27:31;;;;;;;10.75;8.25;;;14.10;99.90;;;;;;5074031;28;20228;-70
2021/08/25 05:29:59;;;;;;;15.82;10.32;;;13.90;99.90;;;;;;5074366;28;20209;-70
2021/08/25 05:32:26;;;;;;;12.48;9.38;;;13.90;99.90;;;;;;5073682;28;20712;-70
2021/08/25 05:34:53;;;;;;;12.57;9.88;;;13.80;99.90;;;;;;5073625;28;20293;-70
2021/08/25 05:37:19;;;;;;;12.70;10.00;;;13.90;99.90;;;;;;5073755;28;20206;-70
2021/08/25 05:39:46;;;;;;;13.85;9.85;;;13.80;99.90;;;;;;5074428;28;20293;-70
2021/08/25 05:42:13;;;;;;;12.10;9.18;;;13.90;99.90;;;;;;5073611;28;20766;-70
2021/08/25 05:44:40;;;;;;;13.27;9.73;;;14.10;99.90;;;;;;5074644;28;20202;-70
2021/08/25 05:47:08;;;;;;;10.82;8.48;;;14.20;99.90;;;;;;5074076;28;20230;-70
2021/08/25 05:49:35;;;;;;;12.90;8.50;;;14.20;99.90;;;;;;5073736;28;20642;-70
2021/08/25 05:52:02;;;;;;;11.68;9.00;;;14.20;99.90;;;;;;5073602;28;20320;-70
2021/08/25 05:54:28;;;;;;;13.77;9.25;;;14.20;99.90;;;;;;5073643;28;20235;-70
2021/08/25 05:56:55;;;;;;;12.55;9.27;;;14.30;99.90;;;;;;5073778;28;20231;-70
2021/08/25 05:59:25;;;;;;;11.93;8.35;;;14.30;99.90;;;;;;5074148;28;20722;-70
2021/08/25 06:01:52;;;;;;;12.07;9.05;;;14.30;99.90;;;;;;5073444;28;20246;-69
2021/08/25 06:04:20;;;;;;;16.55;9.75;;;14.20;99.90;;;;;;5073440;28;20294;-70
2021/08/25 06:06:47;;;;;;;12.35;9.15;;;14.20;99.90;;;;;;5073218;28;20314;-70
2021/08/25 06:09:14;;;;;;;11.73;8.20;;;14.30;99.90;;;;;;5073719;28;20231;-70
2021/08/25 06:11:41;;;;;;;11.93;9.20;;;14.40;99.90;;;;;;5073466;28;20635;-70
2021/08/25 06:14:08;;;;;;;11.27;8.60;;;14.30;99.90;;;;;;5074034;28;20298;-70
2021/08/25 06:16:35;;;;;;;12.68;9.57;;;14.40;99.90;;;;;;5072987;28;20204;-70
2021/08/25 06:19:02;;;;;;;14.57;9.02;;;14.30;99.90;;;;;;5073473;28;20209;-70
2021/08/25 06:21:30;;;;;;;12.52;9.23;;;14.30;99.90;;;;;;5073368;28;20294;-70
2021/08/25 06:23:57;;;;;;;12.02;9.57;;;14.40;99.90;;;;;;5074369;28;20290;-70
2021/08/25 06:26:30;;;;;;;13.70;9.18;;;14.40;99.90;;;;;;5076848;28;20258;-70
2021/08/25 06:28:57;;;;;;;15.07;10.15;;;14.30;99.90;;;;;;5077721;28;20208;-70
2021/08/25 06:31:24;;;;;;;13.57;9.10;;;14.20;99.90;;;;;;5077186;28;20642;-70
2021/08/25 06:33:50;;;;;;;13.02;9.15;;;14.20;99.90;;;;;;5077540;28;20303;-70
2021/08/25 06:36:17;;;;;;;13.52;8.75;;;14.20;99.90;;;;;;5077229;28;20203;-70
2021/08/25 06:38:45;;;;;;;12.32;8.75;;;14.20;99.90;;;;;;5077067;28;20225;-70
2021/08/25 06:41:12;;;;;;;10.93;8.45;;;14.20;99.90;;;;;;5077448;28;20215;-71
2021/08/25 06:43:39;;;;;;;12.07;8.93;;;14.30;99.90;;;;;;5076774;28;20661;-70
2021/08/25 06:46:06;;;;;;;12.88;9.27;;;14.30;99.90;;;;;;5076878;28;20294;-70
2021/08/25 06:48:33;;;;;;;13.45;8.88;;;14.40;99.90;;;;;;5077258;28;20213;-70
2021/08/25 06:51:00;;;;;;;10.52;8.13;;;14.40;99.90;;;;;;5076807;28;20205;-70
2021/08/25 06:53:27;;;;;;;12.15;8.82;;;14.40;99.90;;;;;;5077210;28;20226;-70
2021/08/25 06:55:56;;;;;;;10.98;7.68;;;14.50;99.90;;;;;;5076996;28;20616;-70
2021/08/25 06:58:24;;;;;;;10.93;7.72;;;14.50;99.90;;;;;;5076614;28;20570;-70
2021/08/25 07:00:51;;;;;;;10.98;8.38;;;14.50;99.90;;;;;;5076746;28;20215;-70
2021/08/25 07:03:18;;;;;;;10.40;7.88;;;14.50;99.90;;;;;;5076861;28;20224;-70
2021/08/25 07:05:45;;;;;;;9.93;8.05;;;14.70;99.90;;;;;;5076142;28;20217;-70
2021/08/25 07:08:12;;;;;;;9.40;8.00;;;14.70;99.90;;;;;;5076678;28;20230;-70
2021/08/25 07:10:38;;;;;;;12.30;8.40;;;14.70;99.90;;;;;;5076075;28;20209;-70
2021/08/25 07:13:07;;;;;;;10.55;7.97;;;14.80;99.90;;;;;;5076407;28;20224;-70
2021/08/25 07:15:34;;;;;;;9.70;7.78;;;14.90;99.90;;;;;;5075798;28;20295;-70
2021/08/25 07:18:00;;;;;;;10.90;7.82;;;14.90;99.90;;;;;;5076366;28;20201;-70
2021/08/25 07:20:27;;;;;;;11.23;7.85;;;15.00;99.90;;;;;;5076667;28;20304;-70
2021/08/25 07:22:54;;;;;;;13.65;8.25;;;15.00;99.90;;;;;;5076460;28;20694;-70
2021/08/25 07:25:21;;;;;;;12.30;8.95;;;15.00;99.90;;;;;;5075989;28;20303;-70
2021/08/25 07:27:48;;;;;;;11.38;8.65;;;14.90;99.90;;;;;;5076099;28;20573;-70
2021/08/25 07:30:16;;;;;;;10.15;7.45;;;15.00;99.90;;;;;;5076181;28;20301;-70
2021/08/25 07:32:44;;;;;;;10.05;7.95;;;15.10;99.90;;;;;;5079219;28;20719;-72
2021/08/25 07:35:12;;;;;;;9.57;7.55;;;15.10;99.90;;;;;;5079102;28;20828;-71
2021/08/25 07:37:39;;;;;;;10.60;7.43;;;15.20;99.90;;;;;;5074762;28;20562;-72
2021/08/25 07:40:08;;;;;;;8.93;7.30;;;15.20;99.90;;;;;;5074484;28;20701;-71
2021/08/25 07:42:35;;;;;;;8.63;6.63;;;15.30;99.90;;;;;;5074483;28;20232;-71
2021/08/25 07:45:02;;;;;;;11.05;7.63;;;15.40;99.90;;;;;;5074257;28;20589;-71
2021/08/25 07:47:30;;;;;;;10.40;7.75;;;15.40;99.90;;;;;;5074220;28;20310;-71
2021/08/25 07:49:57;;;;;;;11.90;8.52;;;15.50;99.90;;;;;;5074169;28;20266;-72
2021/08/25 07:52:24;;;;;;;9.18;7.47;;;15.70;99.90;;;;;;5074214;28;20730;-71
2021/08/25 07:54:51;;;;;;;9.95;7.75;;;15.70;99.90;;;;;;5074030;28;20208;-71
2021/08/25 07:57:17;;;;;;;9.90;7.45;;;15.80;99.90;;;;;;5074016;28;20297;-72
2021/08/25 07:59:44;;;;;;;11.98;8.35;;;15.90;99.90;;;;;;5074097;28;20578;-72
2021/08/25 08:02:11;;;;;;;9.10;7.22;;;16.00;99.90;;;;;;5074073;28;20316;-71
2021/08/25 08:04:39;;;;;;;8.05;7.18;;;16.00;99.90;;;;;;5074049;28;20309;-72
2021/08/25 08:07:06;;;;;;;10.55;8.77;;;16.10;99.90;;;;;;5073877;28;20226;-72
2021/08/25 08:09:33;;;;;;;10.15;8.32;;;16.10;99.90;;;;;;5073958;28;20855;-71
2021/08/25 08:11:59;;;;;;;14.68;9.57;;;16.10;99.90;;;;;;5075185;28;20317;-72
2021/08/25 08:14:27;;;;;;;12.07;9.55;;;16.30;99.90;;;;;;5075384;28;20202;-72
2021/08/25 08:16:56;;;;;;;9.80;7.50;;;16.40;99.90;;;;;;5075171;28;20653;-72
2021/08/25 08:19:29;;;;;;;9.25;7.75;;;16.50;99.90;;;;;;5074936;28;20224;-72
2021/08/25 08:21:59;;;;;;;9.00;7.30;;;16.50;99.90;;;;;;5074795;28;20257;-72
2021/08/25 08:24:25;;;;;;;8.50;6.90;;;16.60;99.90;;;;;;5075093;28;20213;-72
2021/08/25 08:26:52;;;;;;;10.77;7.80;;;16.70;99.90;;;;;;5074993;28;20297;-72
2021/08/25 08:29:19;;;;;;;8.23;7.03;;;16.70;99.90;;;;;;5075171;28;20289;-72
2021/08/25 08:31:46;;;;;;;14.00;10.63;;;16.70;99.90;;;;;;5074661;28;20218;-72
2021/08/25 08:34:13;;;;;;;6.75;5.97;;;16.70;99.90;;;;;;5074812;28;20292;-72
2021/08/25 08:36:40;;;;;;;6.35;5.55;;;16.80;99.90;;;;;;5074998;28;20210;-71
2021/08/25 08:39:08;;;;;;;5.97;5.47;;;16.80;99.90;;;;;;5074849;28;20294;-72
2021/08/25 08:41:35;;;;;;;5.47;4.90;;;17.00;99.90;;;;;;5074678;28;20321;-72
2021/08/25 08:44:02;;;;;;;5.43;4.93;;;17.00;99.90;;;;;;5075095;28;20321;-72
2021/08/25 08:46:28;;;;;;;7.00;5.45;;;17.10;99.90;;;;;;5073763;28;20203;-72
2021/08/25 08:48:56;;;;;;;5.65;4.55;;;17.20;99.90;;;;;;5074091;28;20770;-72
2021/08/25 08:51:24;;;;;;;4.90;4.13;;;17.30;99.90;;;;;;5074417;28;20206;-72
2021/08/25 08:53:52;;;;;;;5.68;5.18;;;17.40;99.90;;;;;;5074370;28;20213;-72
2021/08/25 08:56:20;;;;;;;5.53;4.95;;;17.60;99.90;;;;;;5074022;28;20289;-72
2021/08/25 08:58:48;;;;;;;6.25;5.10;;;17.70;99.90;;;;;;5074630;28;20553;-72
2021/08/25 09:01:15;;;;;;;5.03;4.55;;;17.90;99.90;;;;;;5074299;28;20206;-72
2021/08/25 09:03:42;;;;;;;7.03;4.90;;;18.10;99.90;;;;;;5074462;28;20216;-72
2021/08/25 09:06:10;;;;;;;5.93;4.37;;;18.70;99.90;;;;;;5074032;28;20642;-72
2021/08/25 09:08:38;;;;;;;5.50;4.97;;;19.40;99.90;;;;;;5074293;28;20574;-72
2021/08/25 09:11:07;;;;;;;5.23;4.50;;;19.50;99.90;;;;;;5073887;28;20297;-72
2021/08/25 09:13:38;;;;;;;6.70;4.95;;;19.50;99.90;;;;;;5074136;28;20473;-71
2021/08/25 09:16:06;;;;;;;4.93;4.13;;;19.40;99.90;;;;;;5073735;28;20211;-72
2021/08/25 09:18:33;;;;;;;4.83;4.33;;;19.40;99.90;;;;;;5073953;28;20441;-72
2021/08/25 09:21:00;;;;;;;4.97;4.10;;;19.50;99.90;;;;;;5074239;28;20444;-72
2021/08/25 09:23:28;;;;;;;5.60;5.00;;;19.50;99.90;;;;;;5074445;28;20470;-72
2021/08/25 09:25:57;;;;;;;5.40;4.70;;;19.40;99.90;;;;;;5073348;28;20548;-72
2021/08/25 09:28:31;;;;;;;5.90;4.90;;;19.40;99.90;;;;;;5073578;28;20488;-72
2021/08/25 09:31:01;;;;;;;5.40;4.80;;;19.30;99.90;;;;;;5074005;28;20437;-71
2021/08/25 09:33:30;;;;;;;4.83;4.37;;;19.50;99.90;;;;;;5074194;28;20226;-72
2021/08/25 09:35:59;;;;;;;5.50;5.00;;;20.00;99.90;;;;;;5073446;28;20451;-72
2021/08/25 09:38:28;;;;;;;8.50;4.53;;;20.50;99.90;;;;;;5074082;28;20440;-72
2021/08/25 09:40:57;;;;;;;4.00;3.60;;;21.00;99.90;;;;;;5073736;28;20524;-72
2021/08/25 09:43:32;;;;;;;7.33;5.73;;;21.30;99.90;;;;;;5073963;28;20892;-72
2021/08/25 09:46:16;;;;;;;5.10;4.23;;;21.90;99.00;;;;;;5073320;28;20524;-71
2021/08/25 09:48:45;;;;;;;4.97;4.30;;;23.40;98.40;;;;;;5074078;28;20562;-72
2021/08/25 09:51:14;;;;;;;5.10;4.60;;;25.00;94.20;;;;;;5073626;28;20532;-72
2021/08/25 09:53:41;;;;;;;4.43;4.00;;;26.00;90.60;;;;;;5073633;28;20451;-72
2021/08/25 09:56:26;;;;;;;5.37;4.87;;;27.50;83.60;;;;;;5073752;28;20523;-72
2021/08/25 09:58:53;;;;;;;4.50;4.10;;;28.90;70.50;;;;;;5076004;28;20922;-72
2021/08/25 10:01:22;;;;;;;4.30;3.97;;;29.90;62.90;;;;;;5077513;28;20462;-73
2021/08/25 10:03:49;;;;;;;4.57;4.17;;;30.70;58.90;;;;;;5077937;28;20448;-72
2021/08/25 10:06:18;;;;;;;4.53;4.10;;;31.00;57.30;;;;;;5077657;28;20444;-73
2021/08/25 10:08:45;;;;;;;4.60;4.17;;;30.90;56.80;;;;;;5077992;28;20491;-72
2021/08/25 10:11:12;;;;;;;3.97;3.67;;;31.20;54.80;;;;;;5078303;28;20475;-73
2021/08/25 10:13:40;;;;;;;4.23;3.93;;;31.90;53.60;;;;;;5078557;28;20450;-73
2021/08/25 10:16:12;;;;;;;4.83;4.47;;;31.70;52.20;;;;;;5077739;28;20444;-72
2021/08/25 10:18:41;;;;;;;3.97;3.57;;;31.60;51.40;;;;;;5078034;28;20491;-73
2021/08/25 10:21:42;;;;;;;4.50;4.10;;;30.50;51.80;;;;;;5077355;28;20444;-73
2021/08/25 10:24:09;;;;;;;4.20;3.83;;;29.80;52.50;;;;;;5077900;28;20539;-73
2021/08/25 10:27:08;;;;;;;4.30;3.90;;;29.40;53.30;;;;;;5077027;28;20444;-73
2021/08/25 10:30:18;;;;;;;3.80;3.50;;;28.70;54.90;;;;;;5077030;28;20911;-72
2021/08/25 10:33:08;;;;;;;4.23;3.90;;;28.30;55.60;;;;;;5076724;28;20469;-72
2021/08/25 10:35:37;;;;;;;3.97;3.67;;;28.70;54.30;;;;;;5076784;28;20845;-72
2021/08/25 10:38:19;;;;;;;3.93;3.60;;;28.50;55.00;;;;;;5077221;28;20651;-72
2021/08/25 10:40:46;;;;;;;3.70;3.40;;;27.20;56.10;;;;;;5076855;28;20440;-73
2021/08/25 10:43:38;;;;;;;3.60;3.30;;;26.70;57.80;;;;;;5076847;28;20551;-72
2021/08/25 10:46:06;;;;;;;4.07;3.60;;;26.70;56.10;;;;;;5077054;28;20437;-72
2021/08/25 10:49:05;;;;;;;3.70;3.40;;;25.90;58.50;;;;;;5077371;28;20480;-72
2021/08/25 10:51:36;;;;;;;4.03;3.70;;;25.20;60.50;;;;;;5076654;28;20808;-72
2021/08/25 10:54:06;;;;;;;4.40;4.00;;;26.10;58.40;;;;;;5076992;28;20836;-72
2021/08/25 10:56:35;;;;;;;3.30;3.00;;;28.00;58.00;;;;;;5077083;28;20446;-72
2021/08/25 10:59:04;;;;;;;3.50;3.20;;;29.50;53.30;;;;;;5076890;28;20765;-72
2021/08/25 11:01:33;;;;;;;3.40;3.10;;;30.50;51.20;;;;;;5076390;28;20465;-72
2021/08/25 11:04:01;;;;;;;4.00;3.70;;;31.00;50.90;;;;;;5076894;28;20454;-73
2021/08/25 11:06:45;;;;;;;4.10;3.70;;;30.80;48.90;;;;;;5076421;28;20443;-73
2021/08/25 11:09:17;;;;;;;4.47;4.10;;;30.10;50.90;;;;;;5076436;28;20477;-73
2021/08/25 11:11:46;;;;;;;4.37;3.97;;;29.80;51.20;;;;;;5076303;28;20571;-73
2021/08/25 11:14:18;;;;;;;4.67;4.27;;;29.30;50.90;;;;;;5076349;28;20458;-72
2021/08/25 11:16:45;;;;;;;4.70;4.13;;;28.50;54.40;;;;;;5076384;28;20452;-72
2021/08/25 11:19:21;;;;;;;4.57;4.17;;;28.50;54.30;;;;;;5076227;28;20439;-72
2021/08/25 11:21:49;;;;;;;4.70;4.30;;;28.30;54.80;;;;;;5076382;28;20805;-72
2021/08/25 11:24:16;;;;;;;4.27;3.87;;;28.00;55.90;;;;;;5076930;28;20445;-72
2021/08/25 11:26:43;;;;;;;4.47;3.80;;;27.10;55.50;;;;;;5075769;28;20480;-72
2021/08/25 11:29:17;;;;;;;5.87;4.30;;;26.50;55.50;;;;;;5075954;28;20564;-72
2021/08/25 11:31:44;;;;;;;4.13;3.80;;;25.70;58.00;;;;;;5076357;28;20471;-72
2021/08/25 11:34:12;;;;;;;4.30;3.70;;;25.20;60.80;;;;;;5076461;28;20452;-72
2021/08/25 11:36:57;;;;;;;4.70;4.30;;;24.40;62.50;;;;;;5076050;28;20452;-72
2021/08/25 11:39:25;;;;;;;3.87;3.57;;;24.20;64.40;;;;;;5075846;28;20766;-72
2021/08/25 11:41:53;;;;;;;4.60;4.20;;;24.30;64.10;;;;;;5075840;28;20904;-72
2021/08/25 11:44:43;;;;;;;4.47;4.10;;;24.20;65.40;;;;;;5075915;28;20443;-72
2021/08/25 11:47:12;;;;;;;4.30;3.90;;;24.10;63.40;;;;;;5076029;28;20453;-72
2021/08/25 11:49:40;;;;;;;4.90;4.03;;;23.70;64.40;;;;;;5076110;28;20565;-72
2021/08/25 11:52:09;;;;;;;4.33;3.73;;;23.70;64.70;;;;;;5075662;28;20464;-72
2021/08/25 11:54:36;;;;;;;4.57;3.83;;;23.50;63.80;;;;;;5075474;28;20905;-72
2021/08/25 11:57:04;;;;;;;3.70;3.40;;;23.50;66.20;;;;;;5075549;28;20531;-71
2021/08/25 11:59:31;;;;;;;4.47;4.00;;;23.50;67.60;;;;;;5075719;28;20542;-72
2021/08/25 12:02:08;;;;;;;5.27;4.03;;;23.60;68.20;;;;;;5075431;28;20983;-72
2021/08/25 12:04:35;;;;;;;4.63;3.70;;;23.80;66.80;;;;;;5075168;28;20910;-72
2021/08/25 12:07:10;;;;;;;4.37;4.00;;;23.70;64.90;;;;;;5075056;28;21011;-72
2021/08/25 12:09:38;;;;;;;4.83;3.63;;;23.70;64.10;;;;;;5075452;28;20986;-72
2021/08/25 12:12:07;;;;;;;4.23;3.70;;;23.70;65.30;;;;;;5075043;28;20974;-72
2021/08/25 12:14:54;;;;;;;4.30;3.63;;;23.80;65.00;;;;;;5075484;28;20998;-72
2021/08/25 12:17:22;;;;;;;4.20;3.80;;;24.10;62.80;;;;;;5075399;28;20449;-72
2021/08/25 12:19:59;;;;;;;5.30;3.80;;;24.10;64.40;;;;;;5074984;28;20467;-72
2021/08/25 12:22:27;;;;;;;4.47;4.07;;;24.10;63.50;;;;;;5073763;28;20556;-72
2021/08/25 12:24:55;;;;;;;3.67;3.33;;;23.90;62.80;;;;;;5074670;28;20450;-72
2021/08/25 12:27:22;;;;;;;3.97;3.57;;;23.70;62.70;;;;;;5074638;28;20934;-72
2021/08/25 12:29:50;;;;;;;4.30;3.90;;;23.70;64.20;;;;;;5074776;28;20489;-72
2021/08/25 12:32:17;;;;;;;3.70;3.40;;;23.80;67.30;;;;;;5074758;28;20471;-72
2021/08/25 12:35:01;;;;;;;4.30;3.67;;;23.80;66.00;;;;;;5075072;28;20532;-72
2021/08/25 12:37:47;;;;;;;4.23;3.43;;;23.80;64.80;;;;;;5075043;28;20443;-72
2021/08/25 12:40:15;;;;;;;4.30;3.70;;;23.90;66.50;;;;;;5074716;28;20443;-72
2021/08/25 12:42:43;;;;;;;4.80;3.90;;;24.00;64.60;;;;;;5074560;28;20567;-72
2021/08/25 12:45:11;;;;;;;5.13;3.90;;;24.20;66.90;;;;;;5074479;28;20448;-72
2021/08/25 12:47:38;;;;;;;4.10;3.60;;;24.20;64.90;;;;;;5074841;28;20454;-72